createdAt,value
2022-09-25T00:02:11.390Z,4.17
2022-09-25T00:04:56.497Z,4.13
2022-09-25T00:07:42.145Z,4.33
2022-09-25T00:10:29.099Z,4.37
2022-09-25T00:13:17.037Z,3.70
2022-09-25T00:16:03.325Z,3.73
2022-09-25T00:19:07.542Z,3.77
2022-09-25T00:21:53.657Z,3.50
2022-09-25T00:24:38.879Z,3.90
2022-09-25T00:27:24.166Z,3.67
2022-09-25T00:30:10.852Z,4.57
2022-09-25T00:32:56.503Z,3.97
2022-09-25T00:35:41.686Z,3.90
2022-09-25T00:38:27.039Z,3.80
2022-09-25T00:41:12.826Z,3.77
2022-09-25T00:43:59.430Z,3.93
2022-09-25T00:46:44.899Z,3.80
2022-09-25T00:49:30.010Z,3.80
2022-09-25T00:52:15.726Z,3.90
2022-09-25T00:55:07.211Z,4.27
2022-09-25T00:57:56.514Z,3.67
2022-09-25T01:00:42.535Z,3.87
2022-09-25T01:03:28.382Z,3.87
2022-09-25T01:06:16.892Z,3.90
2022-09-25T01:09:02.901Z,3.90
2022-09-25T01:11:48.422Z,3.43
2022-09-25T01:14:34.856Z,3.43
2022-09-25T01:17:35.607Z,3.83
2022-09-25T01:20:40.676Z,3.47
2022-09-25T01:23:50.929Z,3.60
2022-09-25T01:26:57.641Z,3.70
2022-09-25T01:30:09.536Z,4.13
2022-09-25T01:33:18.249Z,3.77
2022-09-25T01:36:14.049Z,3.90
2022-09-25T01:39:19.120Z,4.00
2022-09-25T01:42:17.140Z,3.70
2022-09-25T01:45:09.600Z,3.37
2022-09-25T01:47:58.780Z,3.63
2022-09-25T01:50:53.232Z,3.93
2022-09-25T01:53:47.795Z,3.47
2022-09-25T01:56:42.942Z,3.70
2022-09-25T01:59:44.320Z,3.50
2022-09-25T02:02:35.252Z,4.00
2022-09-25T02:05:46.340Z,3.30
2022-09-25T02:08:57.971Z,4.00
2022-09-25T02:11:48.778Z,3.23
2022-09-25T02:14:46.599Z,4.13
2022-09-25T02:18:07.418Z,3.60
2022-09-25T02:21:12.391Z,3.50
2022-09-25T02:24:09.883Z,3.60
2022-09-25T02:26:56.460Z,3.57
2022-09-25T02:29:42.793Z,3.20
2022-09-25T02:32:32.885Z,3.43
2022-09-25T02:35:18.620Z,3.73
2022-09-25T02:38:04.744Z,3.37
2022-09-25T02:41:01.173Z,3.43
2022-09-25T02:44:08.299Z,3.60
2022-09-25T02:47:08.620Z,3.30
2022-09-25T02:50:12.561Z,3.20
2022-09-25T02:56:30.404Z,3.37
2022-09-25T02:59:26.041Z,3.20
2022-09-25T03:02:12.913Z,3.67
2022-09-25T03:04:59.623Z,3.47
2022-09-25T03:08:03.377Z,3.30
2022-09-25T03:10:49.244Z,3.13
2022-09-25T03:13:34.809Z,3.17
2022-09-25T03:16:46.620Z,3.53
2022-09-25T03:19:32.911Z,3.23
2022-09-25T03:22:18.962Z,3.00
2022-09-25T03:25:08.306Z,3.17
2022-09-25T03:27:53.897Z,3.30
2022-09-25T03:30:40.974Z,3.33
2022-09-25T03:33:28.606Z,2.80
2022-09-25T03:36:20.612Z,3.00
2022-09-25T03:39:06.817Z,3.30
2022-09-25T03:41:52.262Z,3.00
2022-09-25T03:44:37.607Z,3.00
2022-09-25T03:47:22.778Z,3.20
2022-09-25T03:50:08.668Z,3.10
2022-09-25T03:52:54.115Z,3.33
2022-09-25T03:55:39.392Z,3.07
2022-09-25T03:58:24.916Z,3.23
2022-09-25T04:01:11.272Z,3.20
2022-09-25T04:03:56.999Z,2.87
2022-09-25T04:06:42.439Z,3.03
2022-09-25T04:09:27.633Z,3.30
2022-09-25T04:12:13.016Z,2.83
2022-09-25T04:14:58.331Z,3.10
2022-09-25T04:17:43.535Z,2.80
2022-09-25T04:20:28.912Z,3.17
2022-09-25T04:23:14.581Z,2.97
2022-09-25T04:26:00.292Z,2.90
2022-09-25T04:28:46.185Z,2.90
2022-09-25T04:31:32.703Z,2.80
2022-09-25T04:34:17.954Z,2.67
2022-09-25T04:37:03.735Z,2.80
2022-09-25T04:39:49.133Z,2.80
2022-09-25T04:42:34.233Z,2.80
2022-09-25T04:45:19.601Z,3.00
2022-09-25T04:48:05.702Z,3.00
2022-09-25T04:50:51.725Z,2.80
2022-09-25T04:53:37.400Z,2.80
2022-09-25T04:56:23.253Z,3.33
2022-09-25T04:59:08.692Z,2.90
2022-09-25T05:01:54.210Z,2.80
2022-09-25T05:04:39.874Z,3.20
2022-09-25T05:07:25.383Z,2.47
2022-09-25T05:10:10.541Z,3.13
2022-09-25T05:12:58.908Z,2.70
2022-09-25T05:15:44.821Z,2.40
2022-09-25T05:18:29.919Z,2.53
2022-09-25T05:21:15.360Z,3.00
2022-09-25T05:24:01.778Z,3.10
2022-09-25T05:26:48.280Z,2.73
2022-09-25T05:29:34.556Z,3.57
2022-09-25T05:32:20.122Z,2.77
2022-09-25T05:35:06.148Z,2.70
2022-09-25T05:37:43.319Z,2.90
2022-09-25T05:40:28.869Z,2.87
2022-09-25T05:43:14.120Z,2.50
2022-09-25T05:46:00.188Z,2.70
2022-09-25T05:48:45.732Z,2.57
2022-09-25T05:51:31.547Z,2.57
2022-09-25T05:54:16.932Z,2.53
2022-09-25T05:57:02.032Z,3.00
2022-09-25T05:59:47.763Z,3.40
2022-09-25T06:02:32.968Z,3.63
2022-09-25T06:05:18.131Z,4.03
2022-09-25T06:08:03.527Z,4.23
2022-09-25T06:10:55.022Z,4.43
2022-09-25T06:13:42.732Z,4.70
2022-09-25T06:16:28.501Z,5.53
2022-09-25T06:19:15.510Z,4.20
2022-09-25T06:22:00.657Z,4.43
2022-09-25T06:24:46.026Z,4.00
2022-09-25T06:27:31.391Z,4.20
2022-09-25T06:30:16.867Z,4.60
2022-09-25T06:33:03.069Z,4.47
2022-09-25T06:35:49.502Z,4.40
2022-09-25T06:38:35.171Z,3.83
2022-09-25T06:41:20.552Z,4.00
2022-09-25T06:44:09.226Z,3.53
2022-09-25T06:46:54.536Z,4.50
2022-09-25T06:49:39.776Z,4.47
2022-09-25T06:52:25.197Z,3.80
2022-09-25T06:55:11.188Z,4.10
2022-09-25T06:57:56.555Z,4.03
2022-09-25T07:00:41.975Z,3.60
2022-09-25T07:03:45.988Z,3.93
2022-09-25T07:06:33.508Z,4.00
2022-09-25T07:09:18.869Z,3.67
2022-09-25T07:12:06.071Z,4.17
2022-09-25T07:14:51.609Z,3.60
2022-09-25T07:17:37.377Z,4.13
2022-09-25T07:20:22.890Z,4.00
2022-09-25T07:23:08.117Z,3.60
2022-09-25T07:25:53.315Z,3.60
2022-09-25T07:28:40.726Z,4.10
2022-09-25T07:31:28.765Z,3.70
2022-09-25T07:34:14.315Z,3.77
2022-09-25T07:36:59.467Z,3.90
2022-09-25T07:39:44.843Z,4.40
2022-09-25T07:42:30.415Z,4.00
2022-09-25T07:45:16.114Z,4.13
2022-09-25T07:48:03.788Z,4.63
2022-09-25T07:50:50.211Z,3.53
2022-09-25T07:53:35.946Z,4.03
2022-09-25T07:56:21.664Z,3.70
2022-09-25T07:59:06.983Z,3.80
2022-09-25T08:01:54.089Z,4.10
2022-09-25T08:04:39.928Z,4.63
2022-09-25T08:07:25.122Z,4.10
2022-09-25T08:10:10.589Z,3.80
2022-09-25T08:12:56.318Z,4.27
2022-09-25T08:15:41.795Z,4.60
2022-09-25T08:18:26.964Z,4.60
2022-09-25T08:21:14.358Z,4.87
2022-09-25T08:24:01.175Z,4.67
2022-09-25T08:26:46.738Z,4.27
2022-09-25T08:29:32.479Z,4.40
2022-09-25T08:32:17.857Z,4.77
2022-09-25T08:35:04.253Z,4.30
2022-09-25T08:37:50.294Z,4.60
2022-09-25T08:40:46.456Z,5.00
2022-09-25T08:43:35.286Z,4.73
2022-09-25T08:46:43.619Z,5.33
2022-09-25T08:49:43.514Z,4.87
2022-09-25T08:52:31.153Z,4.63
2022-09-25T08:55:24.511Z,5.07
2022-09-25T08:58:24.662Z,6.60
2022-09-25T09:01:23.470Z,5.73
2022-09-25T09:04:19.273Z,5.37
2022-09-25T09:07:39.229Z,5.20
2022-09-25T09:10:42.982Z,4.90
2022-09-25T09:13:46.575Z,5.03
2022-09-25T09:19:38.248Z,4.40
2022-09-25T09:22:35.398Z,4.87
2022-09-25T09:25:43.048Z,6.47
2022-09-25T09:28:38.506Z,5.30
2022-09-25T09:31:26.933Z,7.17
2022-09-25T09:34:46.506Z,6.57
2022-09-25T09:38:01.194Z,5.43
2022-09-25T09:41:23.215Z,7.03
2022-09-25T09:44:27.107Z,7.10
2022-09-25T09:47:30.944Z,7.07
2022-09-25T09:50:42.585Z,8.43
2022-09-25T09:53:48.294Z,7.47
2022-09-25T09:56:35.911Z,7.13
2022-09-25T09:59:48.818Z,8.00
2022-09-25T10:02:43.144Z,7.93
2022-09-25T10:05:33.843Z,7.40
2022-09-25T10:08:19.286Z,8.43
2022-09-25T10:11:18.805Z,7.43
2022-09-25T10:14:05.113Z,8.03
2022-09-25T10:16:52.251Z,7.27
2022-09-25T10:20:03.686Z,6.90
2022-09-25T10:22:53.529Z,6.87
2022-09-25T10:25:40.847Z,6.83
2022-09-25T10:28:37.245Z,7.00
2022-09-25T10:31:24.667Z,6.10
2022-09-25T10:34:13.662Z,6.17
2022-09-25T10:37:21.191Z,6.43
2022-09-25T10:40:22.815Z,6.33
2022-09-25T10:43:17.582Z,7.60
2022-09-25T10:46:15.225Z,7.63
2022-09-25T10:49:47.142Z,10.47
2022-09-25T10:52:53.049Z,15.83
2022-09-25T10:55:46.327Z,19.23
2022-09-25T10:58:37.067Z,19.50
2022-09-25T11:01:35.443Z,20.77
2022-09-25T11:04:28.310Z,17.90
2022-09-25T11:07:27.440Z,16.02
2022-09-25T11:10:28.066Z,14.53
2022-09-25T11:13:38.192Z,14.13
2022-09-25T11:16:45.860Z,14.70
2022-09-25T11:19:37.545Z,12.87
2022-09-25T11:22:34.757Z,12.97
2022-09-25T11:25:35.689Z,12.97
2022-09-25T11:28:45.457Z,11.93
2022-09-25T11:31:30.500Z,11.57
2022-09-25T11:34:53.654Z,11.30
2022-09-25T11:38:17.407Z,11.20
2022-09-25T11:41:12.366Z,10.45
2022-09-25T11:44:09.750Z,10.37
2022-09-25T11:47:15.918Z,10.63
2022-09-25T11:50:02.366Z,9.83
2022-09-25T11:52:51.210Z,9.93
2022-09-25T11:55:51.773Z,10.30
2022-09-25T11:58:55.926Z,9.60
2022-09-25T12:01:46.981Z,9.83
2022-09-25T12:04:45.845Z,9.80
2022-09-25T12:08:01.045Z,9.43
2022-09-25T12:11:16.496Z,9.63
2022-09-25T12:14:14.095Z,9.17
2022-09-25T12:17:20.299Z,9.20
2022-09-25T12:20:40.242Z,8.83
2022-09-25T12:23:59.157Z,8.70
2022-09-25T12:26:57.056Z,8.47
2022-09-25T12:30:23.692Z,9.17
2022-09-25T12:33:14.447Z,8.37
2022-09-25T12:36:33.113Z,8.30
2022-09-25T12:39:46.906Z,7.73
2022-09-25T12:42:53.838Z,7.93
2022-09-25T12:45:51.320Z,7.63
2022-09-25T12:49:06.379Z,7.73
2022-09-25T12:51:58.345Z,5.57
2022-09-25T12:54:51.248Z,7.53
2022-09-25T12:57:49.300Z,7.03
2022-09-25T13:00:39.564Z,6.23
2022-09-25T13:03:49.140Z,7.33
2022-09-25T13:06:50.547Z,8.10
2022-09-25T13:09:48.111Z,7.17
2022-09-25T13:12:37.719Z,7.20
2022-09-25T13:15:28.826Z,7.60
2022-09-25T13:18:21.438Z,6.93
2022-09-25T13:21:26.557Z,7.30
2022-09-25T13:24:15.764Z,7.40
2022-09-25T13:27:06.516Z,8.23
2022-09-25T13:30:00.892Z,7.90
2022-09-25T13:32:52.921Z,7.40
2022-09-25T13:35:38.406Z,7.43
2022-09-25T13:38:42.435Z,7.30
2022-09-25T13:41:29.946Z,7.20
2022-09-25T13:44:43.547Z,6.80
2022-09-25T13:47:32.360Z,6.68
2022-09-25T13:50:23.962Z,6.43
2022-09-25T13:53:18.112Z,6.97
2022-09-25T13:56:03.452Z,7.27
2022-09-25T13:59:20.712Z,6.73
2022-09-25T14:02:40.827Z,6.60
2022-09-25T14:05:35.362Z,6.40
2022-09-25T14:08:21.579Z,6.90
2022-09-25T14:11:10.627Z,6.00
2022-09-25T14:13:56.801Z,6.70
2022-09-25T14:16:48.196Z,6.43
2022-09-25T14:19:39.414Z,6.67
2022-09-25T14:22:32.981Z,6.23
2022-09-25T14:25:33.954Z,6.38
2022-09-25T14:28:45.120Z,6.80
2022-09-25T14:31:36.671Z,6.87
2022-09-25T14:34:46.719Z,6.70
2022-09-25T14:38:12.353Z,7.83
2022-09-25T14:41:05.386Z,7.20
2022-09-25T14:43:54.580Z,7.55
2022-09-25T14:46:40.814Z,6.40
2022-09-25T14:49:33.468Z,7.50
2022-09-25T14:52:28.262Z,6.73
2022-09-25T14:55:20.498Z,7.10
2022-09-25T14:58:15.892Z,7.27
2022-09-25T15:01:29.604Z,7.23
2022-09-25T15:07:20.818Z,6.07
2022-09-25T15:10:24.741Z,7.10
2022-09-25T15:13:10.178Z,6.70
2022-09-25T15:16:16.771Z,7.03
2022-09-25T15:19:09.446Z,6.33
2022-09-25T15:21:55.422Z,7.47
2022-09-25T15:24:55.138Z,7.90
2022-09-25T15:27:44.410Z,8.00
2022-09-25T15:30:30.488Z,7.33
2022-09-25T15:33:25.712Z,7.33
2022-09-25T15:36:24.305Z,7.43
2022-09-25T15:39:16.669Z,7.37
2022-09-25T15:42:05.837Z,7.87
2022-09-25T15:44:51.431Z,7.63
2022-09-25T15:47:36.816Z,8.77
2022-09-25T15:50:26.472Z,7.73
2022-09-25T15:53:36.673Z,7.80
2022-09-25T15:56:30.808Z,7.43
2022-09-25T15:59:24.022Z,8.00
2022-09-25T16:02:39.015Z,7.85
2022-09-25T16:05:32.925Z,8.47
2022-09-25T16:08:24.298Z,8.03
2022-09-25T16:11:17.545Z,7.73
2022-09-25T16:14:32.237Z,8.00
2022-09-25T16:17:33.839Z,7.57
2022-09-25T16:20:25.019Z,6.57
2022-09-25T16:23:30.050Z,7.10
2022-09-25T16:26:22.671Z,6.63
2022-09-25T16:29:26.499Z,7.17
2022-09-25T16:32:19.894Z,7.40
2022-09-25T16:35:06.543Z,7.13
2022-09-25T16:37:54.081Z,7.53
2022-09-25T16:40:39.347Z,7.53
2022-09-25T16:43:26.828Z,7.30
2022-09-25T16:46:15.717Z,7.80
2022-09-25T16:49:02.254Z,8.23
2022-09-25T16:51:49.595Z,7.57
2022-09-25T16:54:37.731Z,7.63
2022-09-25T16:57:28.127Z,7.50
2022-09-25T17:00:19.134Z,8.67
2022-09-25T17:03:04.474Z,8.10
2022-09-25T17:05:50.177Z,8.73
2022-09-25T17:08:35.667Z,9.93
2022-09-25T17:11:22.577Z,9.67
2022-09-25T17:14:17.427Z,10.43
2022-09-25T17:17:02.802Z,11.10
2022-09-25T17:19:50.240Z,12.03
2022-09-25T17:22:35.814Z,11.50
2022-09-25T17:25:24.029Z,11.83
2022-09-25T17:28:10.920Z,11.90
2022-09-25T17:30:56.638Z,12.00
2022-09-25T17:33:42.405Z,12.57
2022-09-25T17:36:27.849Z,12.40
2022-09-25T17:39:13.572Z,12.23
2022-09-25T17:41:59.586Z,12.20
2022-09-25T17:44:47.459Z,11.73
2022-09-25T17:47:32.870Z,11.60
2022-09-25T17:50:18.349Z,10.90
2022-09-25T17:53:07.699Z,10.90
2022-09-25T17:55:54.104Z,11.60
2022-09-25T17:58:39.591Z,12.23
2022-09-25T18:01:27.337Z,11.67
2022-09-25T18:04:20.715Z,11.80
2022-09-25T18:07:06.664Z,12.00
2022-09-25T18:09:51.923Z,12.23
2022-09-25T18:12:37.834Z,11.57
2022-09-25T18:15:24.138Z,12.10
2022-09-25T18:18:09.773Z,12.07
2022-09-25T18:21:14.282Z,12.03
2022-09-25T18:24:01.142Z,11.97
2022-09-25T18:26:47.299Z,12.07
2022-09-25T18:29:32.911Z,12.37
2022-09-25T18:32:18.840Z,12.17
2022-09-25T18:35:06.209Z,11.53
2022-09-25T18:37:52.101Z,11.23
2022-09-25T18:40:38.467Z,10.83
2022-09-25T18:43:24.737Z,11.13
2022-09-25T18:46:10.950Z,11.00
2022-09-25T18:48:59.671Z,10.83
2022-09-25T18:51:46.023Z,11.80
2022-09-25T18:54:31.448Z,10.93
2022-09-25T18:57:17.848Z,11.10
2022-09-25T19:00:04.208Z,11.13
2022-09-25T19:02:49.737Z,10.60
2022-09-25T19:05:35.556Z,10.10
2022-09-25T19:08:20.860Z,9.70
2022-09-25T19:11:14.632Z,9.40
2022-09-25T19:14:04.976Z,10.47
2022-09-25T19:16:53.232Z,10.20
2022-09-25T19:19:40.309Z,10.53
2022-09-25T19:22:25.464Z,9.60
2022-09-25T19:25:11.224Z,9.77
2022-09-25T19:27:56.787Z,9.57
2022-09-25T19:30:41.917Z,9.67
2022-09-25T19:33:34.633Z,9.07
2022-09-25T19:36:24.236Z,9.00
2022-09-25T19:39:10.033Z,9.37
2022-09-25T19:41:55.960Z,9.43
2022-09-25T19:44:41.847Z,9.03
2022-09-25T19:47:28.604Z,8.60
2022-09-25T19:50:14.952Z,8.20
2022-09-25T19:53:01.380Z,8.77
2022-09-25T19:55:54.257Z,8.50
2022-09-25T19:58:40.148Z,8.27
2022-09-25T20:01:27.865Z,9.10
2022-09-25T20:04:18.383Z,8.27
2022-09-25T20:07:04.604Z,8.13
2022-09-25T20:09:49.945Z,7.73
2022-09-25T20:12:35.255Z,8.47
2022-09-25T20:15:20.365Z,8.33
2022-09-25T20:18:06.068Z,8.40
2022-09-25T20:20:51.660Z,8.93
2022-09-25T20:23:36.960Z,8.67
2022-09-25T20:26:26.056Z,8.50
2022-09-25T20:29:14.340Z,8.03
2022-09-25T20:32:00.059Z,7.57
2022-09-25T20:34:45.283Z,7.80
2022-09-25T20:37:30.470Z,8.00
2022-09-25T20:40:15.901Z,8.20
2022-09-25T20:43:01.346Z,8.00
2022-09-25T20:46:04.051Z,7.77
2022-09-25T20:48:51.888Z,8.20
2022-09-25T20:51:37.627Z,7.93
2022-09-25T20:54:25.253Z,8.27
2022-09-25T20:57:11.322Z,7.67
2022-09-25T20:59:57.044Z,7.93
2022-09-25T21:02:42.621Z,7.73
2022-09-25T21:05:27.715Z,8.47
2022-09-25T21:08:13.043Z,7.03
2022-09-25T21:11:01.792Z,7.23
2022-09-25T21:13:52.099Z,7.57
2022-09-25T21:16:37.849Z,7.17
2022-09-25T21:19:23.588Z,7.33
2022-09-25T21:22:09.201Z,7.80
2022-09-25T21:24:54.892Z,7.00
2022-09-25T21:27:40.388Z,7.37
2022-09-25T21:30:25.847Z,7.00
2022-09-25T21:33:10.872Z,7.47
2022-09-25T21:35:56.160Z,6.77
2022-09-25T21:38:42.292Z,6.80
2022-09-25T21:41:28.983Z,6.67
2022-09-25T21:44:16.196Z,7.50
2022-09-25T21:47:01.998Z,6.93
2022-09-25T21:49:47.126Z,7.00
2022-09-25T21:52:32.325Z,7.10
2022-09-25T21:55:17.493Z,7.70
2022-09-25T21:58:02.650Z,6.60
2022-09-25T22:00:47.887Z,6.30
2022-09-25T22:03:38.798Z,6.50
2022-09-25T22:06:33.767Z,7.00
2022-09-25T22:09:22.234Z,6.20
2022-09-25T22:12:07.644Z,6.30
2022-09-25T22:14:53.020Z,6.80
2022-09-25T22:17:38.419Z,6.50
2022-09-25T22:20:24.066Z,7.00
2022-09-25T22:23:09.183Z,6.37
2022-09-25T22:25:54.551Z,6.17
2022-09-25T22:28:40.109Z,6.10
2022-09-25T22:31:28.449Z,6.07
2022-09-25T22:34:18.930Z,6.03
2022-09-25T22:37:04.210Z,6.10
2022-09-25T22:39:49.307Z,6.00
2022-09-25T22:42:34.618Z,5.90
2022-09-25T22:45:19.731Z,6.37
2022-09-25T22:48:05.043Z,6.20
2022-09-25T22:50:58.661Z,6.27
2022-09-25T22:53:44.844Z,5.97
2022-09-25T22:56:34.592Z,5.53
2022-09-25T22:59:20.118Z,5.50
2022-09-25T23:02:05.542Z,6.03
2022-09-25T23:04:53.180Z,6.10
2022-09-25T23:07:38.635Z,5.37
2022-09-25T23:10:23.857Z,5.60
2022-09-25T23:13:09.312Z,5.90
2022-09-25T23:15:54.216Z,5.53
2022-09-25T23:18:39.319Z,5.97
2022-09-25T23:21:25.582Z,5.57
2022-09-25T23:24:13.574Z,5.50
2022-09-25T23:26:59.074Z,6.03
2022-09-25T23:29:44.410Z,5.30
2022-09-25T23:32:30.007Z,5.50
2022-09-25T23:35:15.176Z,5.70
2022-09-25T23:38:01.413Z,5.43
2022-09-25T23:40:46.667Z,5.60
2022-09-25T23:43:31.979Z,5.17
2022-09-25T23:46:19.287Z,5.20
2022-09-25T23:49:05.445Z,5.17
2022-09-25T23:51:50.953Z,5.53
2022-09-25T23:54:36.844Z,5.13
2022-09-25T23:57:22.351Z,5.43
